Terminal Aerodrome Forecast
Issued by NWS Aberdeen, SD

Current Version | Previous Version | Text Only | Print | Product List | Glossary On
Versions: 1 2 3 4 5 6 7 8 9 10 11 12 13 14 15 16 17 18 19 20 21 22 23 24 25 26 27 28 29 30 31 32 33 34 35 36 37 38 39 40 41 42 43 44 45 46 47 48 49 50
000
FTAK31 PAFA 240214 AAA
TAFABR
TAF AMD
PABR 240214Z 2402/2424 24012KT 1 1/2SM -RA BR SCT005 SCT010 OVC024
     FM240400 19012KT 4SM -SHRA BKN005 OVC010
     FM240800 21012KT 4SM -RA BR BKN007 OVC015
     FM241200 24015G22KT 1 1/2SM -RA BR BKN007 OVC015
     FM242000 28022G30KT 3SM -RA BR SCT007 OVC015=

USA.gov is the U.S. government's official web portal to all federal, state and local government web resources and services.